createdAt,value
2023-05-02T00:00:10.013Z,3.45
2023-05-02T00:02:38.285Z,3.50
2023-05-02T00:05:07.760Z,3.65
2023-05-02T00:07:37.016Z,4.25
2023-05-02T00:10:06.109Z,3.95
2023-05-02T00:12:35.989Z,5.30
2023-05-02T00:15:04.169Z,4.55
2023-05-02T00:17:32.426Z,4.05
2023-05-02T00:20:01.557Z,4.72
2023-05-02T00:22:29.878Z,4.22
2023-05-02T00:24:58.695Z,5.00
2023-05-02T00:27:26.883Z,4.80
2023-05-02T00:29:56.354Z,5.22
2023-05-02T00:32:24.486Z,4.47
2023-05-02T00:34:52.611Z,4.88
2023-05-02T00:37:21.147Z,4.88
2023-05-02T00:39:49.260Z,5.03
2023-05-02T00:42:17.286Z,5.32
2023-05-02T00:44:45.506Z,5.05
2023-05-02T00:47:16.246Z,5.10
2023-05-02T00:49:44.365Z,5.10
2023-05-02T00:52:12.390Z,5.47
2023-05-02T00:54:40.649Z,4.75
2023-05-02T00:57:08.799Z,5.15
2023-05-02T00:59:37.670Z,5.50
2023-05-02T01:02:20.042Z,5.40
2023-05-02T01:05:01.228Z,5.40
2023-05-02T01:07:46.635Z,5.33
2023-05-02T01:10:24.726Z,5.18
2023-05-02T01:13:00.551Z,5.78
2023-05-02T01:15:29.373Z,5.80
2023-05-02T01:18:01.866Z,6.18
2023-05-02T01:20:33.066Z,6.20
2023-05-02T01:23:08.437Z,5.43
2023-05-02T01:25:49.404Z,6.95
2023-05-02T01:28:29.351Z,5.97
2023-05-02T01:30:59.337Z,6.22
2023-05-02T01:33:29.492Z,5.85
2023-05-02T01:35:58.685Z,5.82
2023-05-02T01:38:28.642Z,6.00
2023-05-02T01:41:03.349Z,5.97
2023-05-02T01:43:33.826Z,6.18
2023-05-02T01:46:04.456Z,5.78
2023-05-02T01:48:33.773Z,6.10
2023-05-02T01:51:03.587Z,6.53
2023-05-02T01:53:34.913Z,5.63
2023-05-02T01:56:04.092Z,6.43
2023-05-02T01:58:33.284Z,6.03
2023-05-02T02:01:04.428Z,6.45
2023-05-02T02:03:33.966Z,5.95
2023-05-02T02:06:04.022Z,6.18
2023-05-02T02:08:32.110Z,6.40
2023-05-02T02:11:04.338Z,6.05
2023-05-02T02:13:36.837Z,6.32
2023-05-02T02:16:09.446Z,6.10
2023-05-02T02:18:40.016Z,6.10
2023-05-02T02:21:10.789Z,6.30
2023-05-02T02:23:43.370Z,6.28
2023-05-02T02:26:12.098Z,6.85
2023-05-02T02:28:41.172Z,6.03
2023-05-02T02:31:10.962Z,6.57
2023-05-02T02:33:39.569Z,6.75
2023-05-02T02:36:13.058Z,6.78
2023-05-02T02:38:47.268Z,7.00
2023-05-02T02:41:23.377Z,7.70
2023-05-02T02:44:01.614Z,6.90
2023-05-02T02:46:48.058Z,7.65
2023-05-02T02:49:25.859Z,6.10
2023-05-02T02:51:59.485Z,6.60
2023-05-02T02:54:34.516Z,7.70
2023-05-02T02:57:08.718Z,7.72
2023-05-02T02:59:41.757Z,7.63
2023-05-02T03:02:16.162Z,7.60
2023-05-02T03:04:46.521Z,7.63
2023-05-02T03:07:15.041Z,7.90
2023-05-02T03:09:43.637Z,7.95
2023-05-02T03:12:11.911Z,8.18
2023-05-02T03:14:40.670Z,8.15
2023-05-02T03:17:10.584Z,7.78
2023-05-02T03:19:38.808Z,8.63
2023-05-02T03:22:07.109Z,7.95
2023-05-02T03:24:35.148Z,9.23
2023-05-02T03:27:03.207Z,8.65
2023-05-02T03:29:31.296Z,9.00
2023-05-02T03:31:59.382Z,9.38
2023-05-02T03:34:28.956Z,10.45
2023-05-02T03:36:57.038Z,10.65
2023-05-02T03:39:25.111Z,10.88
2023-05-02T03:41:53.566Z,11.20
2023-05-02T03:44:21.625Z,10.77
2023-05-02T03:46:49.692Z,11.75
2023-05-02T03:49:19.605Z,11.88
2023-05-02T03:51:49.206Z,12.05
2023-05-02T03:54:17.700Z,12.15
2023-05-02T03:56:47.028Z,12.45
2023-05-02T03:59:15.844Z,12.18
2023-05-02T04:01:43.894Z,11.75
2023-05-02T04:04:12.467Z,12.07
2023-05-02T04:06:40.635Z,12.73
2023-05-02T04:09:10.097Z,13.13
2023-05-02T04:11:38.166Z,12.50
2023-05-02T04:14:06.204Z,12.18
2023-05-02T04:16:34.306Z,12.40
2023-05-02T04:19:02.344Z,12.15
2023-05-02T04:21:30.339Z,11.55
2023-05-02T04:23:58.422Z,11.95
2023-05-02T04:26:27.940Z,12.60
2023-05-02T04:28:55.969Z,13.48
2023-05-02T04:31:24.112Z,12.93
2023-05-02T04:33:52.343Z,12.68
2023-05-02T04:36:20.504Z,12.82
2023-05-02T04:38:48.580Z,13.65
2023-05-02T04:41:17.366Z,13.88
2023-05-02T04:43:47.108Z,13.63
2023-05-02T04:46:15.173Z,14.40
2023-05-02T04:48:43.261Z,14.63
2023-05-02T04:51:11.696Z,13.95
2023-05-02T04:53:39.874Z,13.60
2023-05-02T04:56:08.468Z,14.70
2023-05-02T04:58:36.520Z,13.30
2023-05-02T05:01:06.315Z,14.32
2023-05-02T05:03:34.472Z,14.93
2023-05-02T05:06:03.477Z,14.63
2023-05-02T05:08:31.917Z,14.00
2023-05-02T05:10:59.947Z,14.52
2023-05-02T05:13:28.440Z,14.88
2023-05-02T05:15:56.519Z,15.90
2023-05-02T05:18:26.015Z,15.48
2023-05-02T05:20:54.054Z,13.88
2023-05-02T05:23:22.160Z,15.40
2023-05-02T05:25:50.212Z,16.52
2023-05-02T05:28:18.771Z,16.02
2023-05-02T05:30:46.946Z,15.93
2023-05-02T05:33:15.183Z,16.75
2023-05-02T05:35:44.631Z,16.10
2023-05-02T05:38:12.658Z,16.73
2023-05-02T05:40:40.669Z,16.33
2023-05-02T05:43:08.962Z,16.92
2023-05-02T05:45:36.989Z,16.75
2023-05-02T05:48:05.349Z,16.67
2023-05-02T05:50:33.400Z,17.48
2023-05-02T05:53:03.080Z,26.67
2023-05-02T05:55:31.132Z,20.75
2023-05-02T05:57:59.176Z,18.85
2023-05-02T06:00:27.209Z,19.83
2023-05-02T06:02:55.306Z,19.42
2023-05-02T06:05:23.428Z,19.25
2023-05-02T06:07:51.484Z,19.42
2023-05-02T06:10:20.970Z,19.23
2023-05-02T06:12:49.421Z,18.10
2023-05-02T06:15:17.661Z,19.17
2023-05-02T06:17:45.941Z,18.50
2023-05-02T06:20:14.621Z,19.23
2023-05-02T06:22:43.680Z,18.67
2023-05-02T06:25:11.701Z,19.30
2023-05-02T06:27:41.208Z,20.27
2023-05-02T06:30:10.246Z,19.17
2023-05-02T06:32:38.399Z,19.65
2023-05-02T06:35:07.218Z,19.25
2023-05-02T06:37:36.012Z,18.60
2023-05-02T06:40:05.446Z,17.90
2023-05-02T06:42:33.495Z,18.95
2023-05-02T06:45:02.873Z,17.90
2023-05-02T06:47:30.958Z,18.23
2023-05-02T06:49:59.244Z,19.23
2023-05-02T06:52:27.490Z,19.00
2023-05-02T06:54:55.532Z,17.40
2023-05-02T06:57:23.666Z,17.80
2023-05-02T06:59:51.730Z,18.23
2023-05-02T07:02:22.313Z,17.33
2023-05-02T07:04:50.520Z,17.70
2023-05-02T07:07:20.562Z,18.08
2023-05-02T07:09:48.743Z,18.50
2023-05-02T07:12:16.771Z,17.75
2023-05-02T07:14:46.874Z,18.27
2023-05-02T07:17:15.805Z,16.85
2023-05-02T07:19:45.732Z,16.83
2023-05-02T07:22:14.069Z,16.48
2023-05-02T07:24:42.945Z,16.08
2023-05-02T07:27:11.730Z,14.23
2023-05-02T07:29:40.321Z,14.52
2023-05-02T07:32:08.375Z,16.30
2023-05-02T07:34:36.489Z,14.73
2023-05-02T07:37:05.954Z,14.68
2023-05-02T07:39:34.613Z,15.25
2023-05-02T07:42:03.727Z,13.60
2023-05-02T07:44:33.373Z,13.65
2023-05-02T07:47:01.504Z,13.55
2023-05-02T07:49:29.548Z,14.15
2023-05-02T07:51:57.602Z,14.07
2023-05-02T07:54:27.731Z,13.30
2023-05-02T07:56:58.233Z,11.45
2023-05-02T07:59:26.432Z,12.70
2023-05-02T08:01:54.596Z,12.15
2023-05-02T08:04:22.867Z,11.63
2023-05-02T08:06:51.035Z,10.45
2023-05-02T08:09:19.190Z,10.98
2023-05-02T08:11:48.876Z,10.55
2023-05-02T08:14:17.411Z,9.30
2023-05-02T08:16:46.570Z,8.55
2023-05-02T08:19:15.010Z,9.93
2023-05-02T08:21:43.871Z,10.68
2023-05-02T08:24:11.914Z,10.45
2023-05-02T08:26:39.958Z,10.18
2023-05-02T08:29:11.570Z,10.40
2023-05-02T08:31:39.776Z,9.23
2023-05-02T08:34:07.848Z,10.93
2023-05-02T08:36:37.244Z,10.07
2023-05-02T08:39:07.968Z,9.70
2023-05-02T08:41:36.264Z,8.93
2023-05-02T08:44:05.032Z,9.70
2023-05-02T08:46:37.121Z,11.02
2023-05-02T08:49:06.545Z,10.77
2023-05-02T08:51:36.684Z,10.45
2023-05-02T08:54:05.390Z,9.55
2023-05-02T08:56:34.424Z,9.18
2023-05-02T08:59:02.503Z,8.65
2023-05-02T09:01:32.187Z,7.53
2023-05-02T09:04:01.675Z,5.97
2023-05-02T09:06:30.248Z,5.30
2023-05-02T09:09:01.820Z,5.35
2023-05-02T09:11:31.446Z,7.43
2023-05-02T09:14:04.015Z,7.22
2023-05-02T09:16:40.371Z,5.80
2023-05-02T09:19:10.899Z,6.53
2023-05-02T09:21:41.405Z,8.32
2023-05-02T09:24:18.422Z,9.13
2023-05-02T09:26:58.735Z,8.60
2023-05-02T09:29:28.379Z,7.40
2023-05-02T09:31:56.975Z,7.35
2023-05-02T09:34:26.472Z,7.45
2023-05-02T09:36:55.006Z,6.30
2023-05-02T09:39:26.066Z,5.70
2023-05-02T09:41:54.818Z,6.30
2023-05-02T09:44:24.492Z,5.65
2023-05-02T09:46:54.769Z,6.22
2023-05-02T09:49:41.005Z,5.50
2023-05-02T09:52:13.777Z,4.82
2023-05-02T09:54:41.885Z,4.10
2023-05-02T09:57:11.083Z,3.70
2023-05-02T09:59:41.127Z,3.30
2023-05-02T10:02:11.652Z,2.85
2023-05-02T10:04:42.990Z,3.15
2023-05-02T10:07:11.521Z,2.83
2023-05-02T10:09:44.259Z,3.30
2023-05-02T10:12:16.834Z,2.95
2023-05-02T10:14:50.815Z,2.05
2023-05-02T10:17:23.471Z,1.90
2023-05-02T10:19:58.086Z,1.92
2023-05-02T10:22:27.650Z,1.95
2023-05-02T10:24:56.180Z,1.90
2023-05-02T10:27:24.345Z,1.83
2023-05-02T10:29:52.947Z,1.92
2023-05-02T10:32:23.221Z,1.50
2023-05-02T10:34:53.735Z,1.52
2023-05-02T10:37:22.163Z,1.67
2023-05-02T10:39:51.128Z,1.25
2023-05-02T10:42:20.701Z,0.70
2023-05-02T10:44:50.445Z,0.40
2023-05-02T10:47:22.498Z,0.63
2023-05-02T10:49:56.737Z,0.50
2023-05-02T10:52:29.764Z,0.60
2023-05-02T10:55:17.909Z,0.50
2023-05-02T10:58:22.357Z,0.63
2023-05-02T11:00:50.530Z,0.60
2023-05-02T11:03:51.904Z,0.55
2023-05-02T11:06:21.453Z,0.23
2023-05-02T11:08:49.611Z,0.40
2023-05-02T11:11:45.227Z,1.10
2023-05-02T11:14:33.888Z,0.95
2023-05-02T11:17:11.717Z,0.30
2023-05-02T11:20:25.759Z,0.30
2023-05-02T11:22:56.802Z,0.30
2023-05-02T11:25:38.649Z,0.60
2023-05-02T11:30:41.764Z,0.20
2023-05-02T11:33:17.692Z,0.30
2023-05-02T11:35:48.035Z,0.73
2023-05-02T11:38:22.256Z,0.50
2023-05-02T11:40:58.600Z,0.50
2023-05-02T11:43:30.671Z,0.30
2023-05-02T11:46:00.783Z,0.40
2023-05-02T11:48:29.143Z,0.35
2023-05-02T11:50:59.057Z,0.40
2023-05-02T11:53:30.121Z,0.50
2023-05-02T11:56:01.017Z,0.50
2023-05-02T11:58:32.404Z,0.73
2023-05-02T12:01:12.495Z,0.40
2023-05-02T12:03:40.738Z,0.70
2023-05-02T12:06:13.591Z,0.57
2023-05-02T12:08:44.487Z,0.70
2023-05-02T12:11:14.900Z,0.50
2023-05-02T12:13:47.752Z,0.50
2023-05-02T12:16:16.186Z,0.63
2023-05-02T12:18:44.557Z,0.57
2023-05-02T12:21:12.866Z,0.60
2023-05-02T12:23:42.239Z,0.50
2023-05-02T12:26:24.310Z,0.70
2023-05-02T12:28:54.725Z,0.98
2023-05-02T12:31:23.744Z,0.65
2023-05-02T12:33:52.605Z,1.27
2023-05-02T12:36:21.006Z,0.85
2023-05-02T12:38:55.198Z,0.80
2023-05-02T12:41:34.228Z,0.88
2023-05-02T12:44:02.816Z,0.60
2023-05-02T12:46:31.915Z,0.50
2023-05-02T12:49:03.944Z,0.80
2023-05-02T12:51:33.256Z,0.90
2023-05-02T12:54:01.478Z,1.20
2023-05-02T12:56:32.527Z,1.20
2023-05-02T12:59:05.203Z,0.80
2023-05-02T13:01:34.567Z,0.90
2023-05-02T13:04:02.919Z,0.80
2023-05-02T13:06:31.404Z,0.80
2023-05-02T13:09:00.143Z,1.15
2023-05-02T13:11:28.273Z,1.20
2023-05-02T13:13:56.594Z,2.65
2023-05-02T13:16:26.176Z,1.05
2023-05-02T13:18:54.363Z,1.20
2023-05-02T13:21:22.806Z,0.70
2023-05-02T13:23:51.906Z,0.75
2023-05-02T13:26:19.968Z,1.15
2023-05-02T13:28:48.026Z,0.70
2023-05-02T13:31:16.170Z,0.70
2023-05-02T13:33:45.626Z,0.65
2023-05-02T13:36:13.810Z,0.60
2023-05-02T13:38:41.947Z,0.80
2023-05-02T13:41:10.134Z,0.82
2023-05-02T13:43:39.331Z,0.65
2023-05-02T13:46:07.597Z,0.75
2023-05-02T13:48:37.350Z,0.90
2023-05-02T13:51:06.818Z,0.80
2023-05-02T13:53:34.944Z,0.93
2023-05-02T13:56:04.182Z,0.68
2023-05-02T13:58:32.249Z,0.82
2023-05-02T14:01:01.167Z,0.77
2023-05-02T14:03:29.417Z,1.13
2023-05-02T14:05:57.570Z,1.00
2023-05-02T14:08:27.805Z,1.15
2023-05-02T14:10:55.904Z,1.35
2023-05-02T14:13:24.621Z,1.08
2023-05-02T14:15:52.909Z,0.98
2023-05-02T14:18:21.244Z,0.88
2023-05-02T14:20:49.298Z,1.08
2023-05-02T14:23:17.506Z,0.90
2023-05-02T14:25:46.942Z,1.00
2023-05-02T14:28:15.227Z,1.05
2023-05-02T14:30:43.326Z,1.10
2023-05-02T14:33:11.493Z,0.90
2023-05-02T14:35:39.532Z,1.05
2023-05-02T14:38:07.607Z,1.10
2023-05-02T14:40:35.710Z,1.30
2023-05-02T14:43:05.226Z,1.30
2023-05-02T14:45:33.386Z,1.27
2023-05-02T14:48:01.558Z,1.10
2023-05-02T14:50:29.605Z,1.30
2023-05-02T14:52:57.630Z,1.65
2023-05-02T14:55:25.740Z,1.30
2023-05-02T14:57:54.990Z,1.58
2023-05-02T15:00:25.641Z,1.60
2023-05-02T15:02:53.725Z,2.10
2023-05-02T15:05:21.936Z,2.20
2023-05-02T15:07:50.045Z,2.17
2023-05-02T15:10:18.092Z,2.00
2023-05-02T15:12:50.641Z,2.00
2023-05-02T15:15:18.706Z,1.90
2023-05-02T15:17:48.165Z,2.20
2023-05-02T15:20:16.268Z,1.35
2023-05-02T15:22:44.413Z,2.00
2023-05-02T15:25:12.569Z,2.08
2023-05-02T15:27:40.606Z,1.80
2023-05-02T15:30:09.940Z,1.88
2023-05-02T15:32:38.007Z,1.77
2023-05-02T15:35:08.936Z,1.50
2023-05-02T15:37:37.219Z,1.75
2023-05-02T15:40:06.657Z,1.80
2023-05-02T15:42:37.013Z,1.92
2023-05-02T15:45:06.145Z,1.60
2023-05-02T15:47:34.240Z,1.60
2023-05-02T15:50:02.822Z,1.40
2023-05-02T15:52:32.471Z,1.65
2023-05-02T15:55:01.625Z,1.50
2023-05-02T15:57:29.895Z,1.48
2023-05-02T15:59:57.936Z,1.60
2023-05-02T16:02:26.069Z,2.10
2023-05-02T16:04:54.105Z,2.30
2023-05-02T16:07:22.158Z,2.25
2023-05-02T16:09:51.951Z,2.22
2023-05-02T16:12:20.005Z,2.55
2023-05-02T16:14:48.048Z,2.30
2023-05-02T16:17:16.578Z,2.20
2023-05-02T16:19:44.942Z,2.00
2023-05-02T16:22:13.047Z,1.55
2023-05-02T16:24:41.282Z,1.77
2023-05-02T16:27:10.819Z,2.20
2023-05-02T16:29:38.828Z,1.90
2023-05-02T16:32:08.209Z,2.10
2023-05-02T16:34:37.237Z,1.77
2023-05-02T16:37:05.448Z,1.90
2023-05-02T16:39:34.774Z,2.10
2023-05-02T16:42:02.880Z,2.40
2023-05-02T16:44:32.500Z,1.88
2023-05-02T16:47:01.048Z,1.73
2023-05-02T16:49:29.169Z,2.35
2023-05-02T16:51:57.737Z,2.20
2023-05-02T16:54:26.128Z,2.05
2023-05-02T16:56:54.377Z,2.03
2023-05-02T16:59:22.416Z,1.88
2023-05-02T17:01:51.840Z,2.40
2023-05-02T17:04:21.472Z,2.10
2023-05-02T17:06:49.555Z,2.55
2023-05-02T17:09:18.492Z,2.38
2023-05-02T17:11:46.578Z,1.85
2023-05-02T17:14:15.422Z,2.05
2023-05-02T17:16:43.484Z,1.92
2023-05-02T17:19:12.951Z,2.17
2023-05-02T17:21:41.261Z,2.15
2023-05-02T17:24:10.027Z,2.60
2023-05-02T17:26:38.146Z,2.63
2023-05-02T17:29:06.205Z,3.30
2023-05-02T17:31:34.321Z,4.95
2023-05-02T17:34:02.537Z,2.95
2023-05-02T17:36:32.868Z,2.72
2023-05-02T17:39:01.109Z,2.85
2023-05-02T17:41:29.203Z,2.33
2023-05-02T17:43:57.227Z,3.00
2023-05-02T17:46:25.879Z,3.00
2023-05-02T17:48:53.967Z,2.50
2023-05-02T17:51:22.024Z,2.97
2023-05-02T17:53:53.495Z,2.85
2023-05-02T17:56:21.681Z,2.35
2023-05-02T17:58:49.813Z,2.85
2023-05-02T18:01:17.893Z,2.53
2023-05-02T18:03:48.125Z,2.50
2023-05-02T18:06:17.656Z,2.38
2023-05-02T18:08:46.285Z,2.40
2023-05-02T18:11:20.179Z,2.40
2023-05-02T18:13:49.478Z,2.45
2023-05-02T18:16:17.565Z,2.47
2023-05-02T18:18:46.453Z,2.78
2023-05-02T18:21:22.064Z,2.50
2023-05-02T18:23:50.153Z,2.58
2023-05-02T18:26:19.566Z,2.70
2023-05-02T18:28:53.047Z,2.80
2023-05-02T18:31:21.356Z,2.22
2023-05-02T18:33:49.579Z,2.35
2023-05-02T18:36:20.663Z,3.20
2023-05-02T18:38:48.766Z,2.45
2023-05-02T18:41:17.523Z,2.75
2023-05-02T18:43:46.947Z,2.42
2023-05-02T18:46:15.044Z,2.33
2023-05-02T18:48:43.448Z,2.20
2023-05-02T18:51:11.576Z,2.45
2023-05-02T18:53:39.634Z,2.50
2023-05-02T18:56:13.525Z,2.75
2023-05-02T18:58:42.041Z,2.35
2023-05-02T19:01:15.849Z,3.03
2023-05-02T19:03:44.374Z,2.80
2023-05-02T19:06:12.790Z,2.42
2023-05-02T19:08:41.019Z,2.47
2023-05-02T19:11:09.252Z,2.50
2023-05-02T19:13:37.446Z,2.67
2023-05-02T19:16:05.886Z,2.47
2023-05-02T19:18:35.334Z,2.75
2023-05-02T19:21:12.273Z,3.17
2023-05-02T19:23:41.477Z,2.75
2023-05-02T19:26:13.229Z,2.65
2023-05-02T19:28:41.577Z,2.72
2023-05-02T19:31:10.924Z,2.85
2023-05-02T19:33:41.555Z,2.72
2023-05-02T19:36:09.682Z,3.47
2023-05-02T19:38:37.825Z,2.70
2023-05-02T19:41:06.172Z,2.92
2023-05-02T19:43:34.635Z,2.95
2023-05-02T19:46:02.982Z,2.80
2023-05-02T19:48:31.104Z,2.75
2023-05-02T19:51:03.133Z,2.88
2023-05-02T19:53:35.028Z,3.30
2023-05-02T19:58:34.490Z,3.00
2023-05-02T20:01:03.390Z,2.97
2023-05-02T20:03:32.323Z,2.80
2023-05-02T20:06:02.175Z,3.28
2023-05-02T20:08:31.610Z,2.70
2023-05-02T20:11:01.197Z,4.00
2023-05-02T20:13:30.532Z,3.33
2023-05-02T20:15:59.883Z,4.43
2023-05-02T20:18:32.869Z,3.58
2023-05-02T20:21:05.111Z,3.60
2023-05-02T20:23:34.903Z,3.53
2023-05-02T20:26:05.854Z,3.20
2023-05-02T20:28:37.712Z,3.78
2023-05-02T20:31:08.096Z,3.03
2023-05-02T20:33:45.373Z,3.80
2023-05-02T20:36:18.486Z,3.65
2023-05-02T20:38:51.485Z,3.70
2023-05-02T20:41:21.513Z,4.00
2023-05-02T20:43:50.702Z,4.72
2023-05-02T20:46:25.187Z,5.07
2023-05-02T20:48:55.644Z,4.93
2023-05-02T20:51:30.035Z,4.85
2023-05-02T20:54:05.626Z,4.28
2023-05-02T20:56:35.623Z,4.00
2023-05-02T20:59:07.253Z,3.65
2023-05-02T21:01:38.816Z,4.10
2023-05-02T21:04:09.392Z,3.85
2023-05-02T21:06:41.412Z,3.47
2023-05-02T21:11:42.031Z,4.55
2023-05-02T21:14:12.874Z,4.13
2023-05-02T21:16:45.431Z,4.78
2023-05-02T21:19:14.803Z,4.20
2023-05-02T21:21:46.201Z,4.25
2023-05-02T21:24:16.446Z,3.83
2023-05-02T21:26:46.079Z,3.80
2023-05-02T21:29:26.525Z,3.55
2023-05-02T21:31:55.162Z,4.07
2023-05-02T21:34:25.815Z,4.82
2023-05-02T21:36:59.747Z,4.93
2023-05-02T21:39:32.386Z,5.00
2023-05-02T21:42:03.879Z,4.82
2023-05-02T21:44:36.830Z,4.93
2023-05-02T21:47:08.137Z,3.88
2023-05-02T21:49:50.512Z,3.85
2023-05-02T21:52:21.741Z,4.18
2023-05-02T21:54:56.340Z,4.28
2023-05-02T21:57:30.178Z,3.78
2023-05-02T22:00:07.756Z,4.55
2023-05-02T22:02:39.398Z,3.78
2023-05-02T22:05:09.740Z,4.38
2023-05-02T22:07:44.994Z,5.35
2023-05-02T22:10:18.938Z,5.07
2023-05-02T22:12:50.397Z,6.85
2023-05-02T22:15:26.786Z,7.15
2023-05-02T22:17:57.526Z,5.60
2023-05-02T22:20:31.537Z,4.55
2023-05-02T22:23:02.372Z,4.90
2023-05-02T22:25:50.291Z,6.03
2023-05-02T22:28:20.048Z,4.40
2023-05-02T22:30:50.910Z,4.35
2023-05-02T22:33:21.442Z,4.53
2023-05-02T22:35:52.961Z,3.70
2023-05-02T22:38:24.200Z,4.18
2023-05-02T22:41:02.273Z,4.68
2023-05-02T22:43:34.850Z,4.57
2023-05-02T22:46:11.263Z,4.70
2023-05-02T22:48:44.489Z,4.93
2023-05-02T22:51:13.886Z,4.00
2023-05-02T22:53:46.210Z,4.45
2023-05-02T22:56:14.259Z,4.32
2023-05-02T22:58:42.317Z,4.25
2023-05-02T23:01:10.383Z,4.63
2023-05-02T23:03:38.502Z,4.75
2023-05-02T23:06:06.798Z,4.15
2023-05-02T23:08:35.229Z,4.10
2023-05-02T23:11:04.691Z,4.95
2023-05-02T23:13:32.774Z,3.65
2023-05-02T23:16:01.598Z,4.75
2023-05-02T23:18:29.691Z,5.22
2023-05-02T23:20:57.785Z,4.95
2023-05-02T23:23:26.449Z,4.90
2023-05-02T23:25:54.524Z,5.82
2023-05-02T23:28:23.931Z,6.00
2023-05-02T23:30:52.363Z,6.70
2023-05-02T23:33:20.516Z,6.15
2023-05-02T23:35:48.822Z,5.85
2023-05-02T23:38:17.281Z,5.60
2023-05-02T23:40:45.530Z,5.53
2023-05-02T23:43:13.931Z,8.27
2023-05-02T23:45:43.419Z,7.47
2023-05-02T23:48:11.574Z,6.43
2023-05-02T23:50:39.809Z,7.82
2023-05-02T23:53:08.292Z,7.63
2023-05-02T23:55:36.490Z,6.68
2023-05-02T23:58:04.563Z,5.53
